sensor_id;sensor_type;location;lat;lon;timestamp;temperature;humidity
33994;DHT22;20673;48.980;8.138;2023-04-03T00:00:04;5.10;99.90
33994;DHT22;20673;48.980;8.138;2023-04-03T00:02:30;5.10;99.90
33994;DHT22;20673;48.980;8.138;2023-04-03T00:04:56;5.10;99.90
33994;DHT22;20673;48.980;8.138;2023-04-03T00:07:22;5.10;99.90
33994;DHT22;20673;48.980;8.138;2023-04-03T00:09:47;5.10;99.90
33994;DHT22;20673;48.980;8.138;2023-04-03T00:12:13;5.10;99.90
33994;DHT22;20673;48.980;8.138;2023-04-03T00:14:39;5.10;99.90
33994;DHT22;20673;48.980;8.138;2023-04-03T00:17:04;5.00;99.90
33994;DHT22;20673;48.980;8.138;2023-04-03T00:19:30;5.10;99.90
33994;DHT22;20673;48.980;8.138;2023-04-03T00:21:56;5.10;99.90
33994;DHT22;20673;48.980;8.138;2023-04-03T00:24:21;5.10;99.90
33994;DHT22;20673;48.980;8.138;2023-04-03T00:26:47;5.00;99.90
33994;DHT22;20673;48.980;8.138;2023-04-03T00:29:13;5.00;99.90
33994;DHT22;20673;48.980;8.138;2023-04-03T00:31:39;5.00;99.90
33994;DHT22;20673;48.980;8.138;2023-04-03T00:34:05;5.00;99.90
33994;DHT22;20673;48.980;8.138;2023-04-03T00:36:31;5.00;99.90
33994;DHT22;20673;48.980;8.138;2023-04-03T00:38:56;4.90;99.90
33994;DHT22;20673;48.980;8.138;2023-04-03T00:41:22;4.90;99.90
33994;DHT22;20673;48.980;8.138;2023-04-03T00:43:48;4.90;99.90
33994;DHT22;20673;48.980;8.138;2023-04-03T00:46:13;4.90;99.90
33994;DHT22;20673;48.980;8.138;2023-04-03T00:48:40;4.90;99.90
33994;DHT22;20673;48.980;8.138;2023-04-03T00:51:07;4.90;99.90
33994;DHT22;20673;48.980;8.138;2023-04-03T00:53:38;4.80;99.90
33994;DHT22;20673;48.980;8.138;2023-04-03T00:56:05;4.90;99.90
33994;DHT22;20673;48.980;8.138;2023-04-03T00:58:39;4.90;99.90
33994;DHT22;20673;48.980;8.138;2023-04-03T01:01:03;4.80;99.90
33994;DHT22;20673;48.980;8.138;2023-04-03T01:03:30;4.80;99.90
33994;DHT22;20673;48.980;8.138;2023-04-03T01:05:56;4.90;99.90
33994;DHT22;20673;48.980;8.138;2023-04-03T01:08:22;4.90;99.90
33994;DHT22;20673;48.980;8.138;2023-04-03T01:10:48;4.90;99.90
33994;DHT22;20673;48.980;8.138;2023-04-03T01:13:19;4.90;99.90
33994;DHT22;20673;48.980;8.138;2023-04-03T01:15:45;4.80;99.90
33994;DHT22;20673;48.980;8.138;2023-04-03T01:18:11;4.80;99.90
33994;DHT22;20673;48.980;8.138;2023-04-03T01:20:42;4.80;99.90
33994;DHT22;20673;48.980;8.138;2023-04-03T01:25:46;4.90;99.90
33994;DHT22;20673;48.980;8.138;2023-04-03T01:28:14;4.90;99.90
33994;DHT22;20673;48.980;8.138;2023-04-03T01:33:11;4.80;99.90
33994;DHT22;20673;48.980;8.138;2023-04-03T01:35:37;4.80;99.90
33994;DHT22;20673;48.980;8.138;2023-04-03T01:38:02;4.80;99.90
33994;DHT22;20673;48.980;8.138;2023-04-03T01:40:28;4.80;99.90
33994;DHT22;20673;48.980;8.138;2023-04-03T01:42:54;4.70;99.90
33994;DHT22;20673;48.980;8.138;2023-04-03T01:45:20;4.70;99.90
33994;DHT22;20673;48.980;8.138;2023-04-03T01:47:45;4.70;99.90
33994;DHT22;20673;48.980;8.138;2023-04-03T01:50:11;4.70;99.90
33994;DHT22;20673;48.980;8.138;2023-04-03T01:52:36;4.70;99.90
33994;DHT22;20673;48.980;8.138;2023-04-03T01:55:02;4.70;99.90
33994;DHT22;20673;48.980;8.138;2023-04-03T01:57:28;4.70;99.90
33994;DHT22;20673;48.980;8.138;2023-04-03T01:59:54;4.60;99.90
33994;DHT22;20673;48.980;8.138;2023-04-03T02:02:20;4.70;99.90
33994;DHT22;20673;48.980;8.138;2023-04-03T02:04:45;4.60;99.90
33994;DHT22;20673;48.980;8.138;2023-04-03T02:07:11;4.60;99.90
33994;DHT22;20673;48.980;8.138;2023-04-03T02:09:37;4.60;99.90
33994;DHT22;20673;48.980;8.138;2023-04-03T02:12:02;4.50;99.90
33994;DHT22;20673;48.980;8.138;2023-04-03T02:14:28;4.40;99.90
33994;DHT22;20673;48.980;8.138;2023-04-03T02:16:54;4.40;99.90
33994;DHT22;20673;48.980;8.138;2023-04-03T02:19:20;4.40;99.90
33994;DHT22;20673;48.980;8.138;2023-04-03T02:21:46;4.40;99.90
33994;DHT22;20673;48.980;8.138;2023-04-03T02:24:11;4.40;99.90
33994;DHT22;20673;48.980;8.138;2023-04-03T02:26:37;4.30;99.90
33994;DHT22;20673;48.980;8.138;2023-04-03T02:29:03;4.30;99.90
33994;DHT22;20673;48.980;8.138;2023-04-03T02:31:28;4.30;99.90
33994;DHT22;20673;48.980;8.138;2023-04-03T02:33:54;4.20;99.90
33994;DHT22;20673;48.980;8.138;2023-04-03T02:36:20;4.20;99.90
33994;DHT22;20673;48.980;8.138;2023-04-03T02:38:45;4.20;99.90
33994;DHT22;20673;48.980;8.138;2023-04-03T02:41:11;4.10;99.90
33994;DHT22;20673;48.980;8.138;2023-04-03T02:43:37;4.00;99.90
33994;DHT22;20673;48.980;8.138;2023-04-03T02:46:03;4.10;99.90
33994;DHT22;20673;48.980;8.138;2023-04-03T02:48:29;4.10;99.90
33994;DHT22;20673;48.980;8.138;2023-04-03T02:50:55;4.10;99.90
33994;DHT22;20673;48.980;8.138;2023-04-03T02:53:20;4.00;99.90
33994;DHT22;20673;48.980;8.138;2023-04-03T02:55:46;4.00;99.90
33994;DHT22;20673;48.980;8.138;2023-04-03T02:58:12;3.90;99.90
33994;DHT22;20673;48.980;8.138;2023-04-03T03:00:38;3.90;99.90
33994;DHT22;20673;48.980;8.138;2023-04-03T03:03:03;3.80;99.90
33994;DHT22;20673;48.980;8.138;2023-04-03T03:05:29;3.80;99.90
33994;DHT22;20673;48.980;8.138;2023-04-03T03:07:55;3.80;99.90
33994;DHT22;20673;48.980;8.138;2023-04-03T03:10:21;3.70;99.90
33994;DHT22;20673;48.980;8.138;2023-04-03T03:12:47;3.70;99.90
33994;DHT22;20673;48.980;8.138;2023-04-03T03:15:13;3.70;99.90
33994;DHT22;20673;48.980;8.138;2023-04-03T03:17:39;3.70;99.90
33994;DHT22;20673;48.980;8.138;2023-04-03T03:20:04;3.60;99.90
33994;DHT22;20673;48.980;8.138;2023-04-03T03:22:31;3.60;99.90
33994;DHT22;20673;48.980;8.138;2023-04-03T03:24:57;3.60;99.90
33994;DHT22;20673;48.980;8.138;2023-04-03T03:27:22;3.50;99.90
33994;DHT22;20673;48.980;8.138;2023-04-03T03:29:49;3.50;99.90
33994;DHT22;20673;48.980;8.138;2023-04-03T03:32:14;3.40;99.90
33994;DHT22;20673;48.980;8.138;2023-04-03T03:34:40;3.40;99.90
33994;DHT22;20673;48.980;8.138;2023-04-03T03:37:06;3.40;99.90
33994;DHT22;20673;48.980;8.138;2023-04-03T03:39:31;3.30;99.90
33994;DHT22;20673;48.980;8.138;2023-04-03T03:41:57;3.30;99.90
33994;DHT22;20673;48.980;8.138;2023-04-03T03:44:23;3.20;99.90
33994;DHT22;20673;48.980;8.138;2023-04-03T03:46:48;3.20;99.90
33994;DHT22;20673;48.980;8.138;2023-04-03T03:49:14;3.20;99.90
33994;DHT22;20673;48.980;8.138;2023-04-03T03:51:40;3.10;99.90
33994;DHT22;20673;48.980;8.138;2023-04-03T03:54:06;3.20;99.90
33994;DHT22;20673;48.980;8.138;2023-04-03T03:56:32;3.20;99.90
33994;DHT22;20673;48.980;8.138;2023-04-03T03:58:58;3.10;99.90
33994;DHT22;20673;48.980;8.138;2023-04-03T04:01:23;3.10;99.90
33994;DHT22;20673;48.980;8.138;2023-04-03T04:03:49;3.10;99.90
33994;DHT22;20673;48.980;8.138;2023-04-03T04:06:15;3.10;99.90
33994;DHT22;20673;48.980;8.138;2023-04-03T04:08:41;3.10;99.90
33994;DHT22;20673;48.980;8.138;2023-04-03T04:11:07;3.10;99.90
33994;DHT22;20673;48.980;8.138;2023-04-03T04:13:32;3.10;99.90
33994;DHT22;20673;48.980;8.138;2023-04-03T04:15:58;3.10;99.90
33994;DHT22;20673;48.980;8.138;2023-04-03T04:18:24;3.10;99.90
33994;DHT22;20673;48.980;8.138;2023-04-03T04:20:50;3.10;99.90
33994;DHT22;20673;48.980;8.138;2023-04-03T04:23:16;3.10;99.90
33994;DHT22;20673;48.980;8.138;2023-04-03T04:25:43;3.10;99.90
33994;DHT22;20673;48.980;8.138;2023-04-03T04:28:09;3.10;99.90
33994;DHT22;20673;48.980;8.138;2023-04-03T04:30:35;3.20;99.90
33994;DHT22;20673;48.980;8.138;2023-04-03T04:33:00;3.20;99.90
33994;DHT22;20673;48.980;8.138;2023-04-03T04:35:26;3.20;99.90
33994;DHT22;20673;48.980;8.138;2023-04-03T04:37:52;3.20;99.90
33994;DHT22;20673;48.980;8.138;2023-04-03T04:40:18;3.20;99.90
33994;DHT22;20673;48.980;8.138;2023-04-03T04:42:43;3.20;99.90
33994;DHT22;20673;48.980;8.138;2023-04-03T04:45:09;3.20;99.90
33994;DHT22;20673;48.980;8.138;2023-04-03T04:47:35;3.20;99.90
33994;DHT22;20673;48.980;8.138;2023-04-03T04:50:01;3.30;99.90
33994;DHT22;20673;48.980;8.138;2023-04-03T04:52:26;3.30;99.90
33994;DHT22;20673;48.980;8.138;2023-04-03T04:54:52;3.30;99.90
33994;DHT22;20673;48.980;8.138;2023-04-03T04:57:18;3.30;99.90
33994;DHT22;20673;48.980;8.138;2023-04-03T04:59:43;3.30;99.90
33994;DHT22;20673;48.980;8.138;2023-04-03T05:02:09;3.40;99.90
33994;DHT22;20673;48.980;8.138;2023-04-03T05:04:35;3.30;99.90
33994;DHT22;20673;48.980;8.138;2023-04-03T05:07:00;3.30;99.90
33994;DHT22;20673;48.980;8.138;2023-04-03T05:09:26;3.30;99.90
33994;DHT22;20673;48.980;8.138;2023-04-03T05:11:52;3.40;99.90
33994;DHT22;20673;48.980;8.138;2023-04-03T05:14:18;3.40;99.90
33994;DHT22;20673;48.980;8.138;2023-04-03T05:16:44;3.30;99.90
33994;DHT22;20673;48.980;8.138;2023-04-03T05:19:09;3.40;99.90
33994;DHT22;20673;48.980;8.138;2023-04-03T05:21:35;3.40;99.90
33994;DHT22;20673;48.980;8.138;2023-04-03T05:24:01;3.40;99.90
33994;DHT22;20673;48.980;8.138;2023-04-03T05:26:28;3.40;99.90
33994;DHT22;20673;48.980;8.138;2023-04-03T05:28:54;3.40;99.90
33994;DHT22;20673;48.980;8.138;2023-04-03T05:31:20;3.40;99.90
33994;DHT22;20673;48.980;8.138;2023-04-03T05:33:46;3.50;99.90
33994;DHT22;20673;48.980;8.138;2023-04-03T05:36:12;3.50;99.90
33994;DHT22;20673;48.980;8.138;2023-04-03T05:38:38;3.60;99.90
33994;DHT22;20673;48.980;8.138;2023-04-03T05:41:04;3.60;99.90
33994;DHT22;20673;48.980;8.138;2023-04-03T05:43:30;3.60;99.90
33994;DHT22;20673;48.980;8.138;2023-04-03T05:45:56;3.70;99.90
33994;DHT22;20673;48.980;8.138;2023-04-03T05:48:21;3.70;99.90
33994;DHT22;20673;48.980;8.138;2023-04-03T05:50:47;3.60;99.90
33994;DHT22;20673;48.980;8.138;2023-04-03T05:53:16;3.60;99.90
33994;DHT22;20673;48.980;8.138;2023-04-03T05:55:40;3.50;99.90
33994;DHT22;20673;48.980;8.138;2023-04-03T05:58:06;3.50;99.90
33994;DHT22;20673;48.980;8.138;2023-04-03T06:00:31;3.50;99.90
33994;DHT22;20673;48.980;8.138;2023-04-03T06:02:57;3.40;99.90
33994;DHT22;20673;48.980;8.138;2023-04-03T06:05:23;3.50;99.90
33994;DHT22;20673;48.980;8.138;2023-04-03T06:07:49;3.40;99.90
33994;DHT22;20673;48.980;8.138;2023-04-03T06:10:15;3.40;99.90
33994;DHT22;20673;48.980;8.138;2023-04-03T06:12:41;3.40;99.90
33994;DHT22;20673;48.980;8.138;2023-04-03T06:15:07;3.40;99.90
33994;DHT22;20673;48.980;8.138;2023-04-03T06:17:35;3.50;99.90
33994;DHT22;20673;48.980;8.138;2023-04-03T06:20:01;3.50;99.90
33994;DHT22;20673;48.980;8.138;2023-04-03T06:22:27;3.60;99.90
33994;DHT22;20673;48.980;8.138;2023-04-03T06:24:55;3.70;99.90
33994;DHT22;20673;48.980;8.138;2023-04-03T06:27:21;3.70;99.90
33994;DHT22;20673;48.980;8.138;2023-04-03T06:29:46;3.80;99.90
33994;DHT22;20673;48.980;8.138;2023-04-03T06:32:13;3.80;99.90
33994;DHT22;20673;48.980;8.138;2023-04-03T06:34:39;3.70;99.90
33994;DHT22;20673;48.980;8.138;2023-04-03T06:37:05;3.80;99.90
33994;DHT22;20673;48.980;8.138;2023-04-03T06:39:30;3.80;99.90
33994;DHT22;20673;48.980;8.138;2023-04-03T06:41:56;3.90;99.90
33994;DHT22;20673;48.980;8.138;2023-04-03T06:44:22;3.90;99.90
33994;DHT22;20673;48.980;8.138;2023-04-03T06:46:47;4.10;99.90
33994;DHT22;20673;48.980;8.138;2023-04-03T06:49:13;4.20;99.90
33994;DHT22;20673;48.980;8.138;2023-04-03T06:51:40;4.20;99.90
33994;DHT22;20673;48.980;8.138;2023-04-03T06:54:06;4.30;99.90
33994;DHT22;20673;48.980;8.138;2023-04-03T06:56:33;4.40;99.90
33994;DHT22;20673;48.980;8.138;2023-04-03T06:58:59;4.40;99.90
33994;DHT22;20673;48.980;8.138;2023-04-03T07:01:29;4.50;99.90
33994;DHT22;20673;48.980;8.138;2023-04-03T07:03:53;4.60;99.90
33994;DHT22;20673;48.980;8.138;2023-04-03T07:06:19;4.60;99.90
33994;DHT22;20673;48.980;8.138;2023-04-03T07:08:45;4.60;99.90
33994;DHT22;20673;48.980;8.138;2023-04-03T07:11:11;4.80;99.90
33994;DHT22;20673;48.980;8.138;2023-04-03T07:13:37;4.90;99.90
33994;DHT22;20673;48.980;8.138;2023-04-03T07:16:03;5.10;99.90
33994;DHT22;20673;48.980;8.138;2023-04-03T07:18:30;5.20;99.90
33994;DHT22;20673;48.980;8.138;2023-04-03T07:20:56;5.20;99.90
33994;DHT22;20673;48.980;8.138;2023-04-03T07:23:22;5.30;99.90
33994;DHT22;20673;48.980;8.138;2023-04-03T07:25:48;5.50;99.90
33994;DHT22;20673;48.980;8.138;2023-04-03T07:28:15;5.50;99.90
33994;DHT22;20673;48.980;8.138;2023-04-03T07:30:52;5.60;99.90
33994;DHT22;20673;48.980;8.138;2023-04-03T07:33:15;5.70;99.90
33994;DHT22;20673;48.980;8.138;2023-04-03T07:35:41;5.70;99.90
33994;DHT22;20673;48.980;8.138;2023-04-03T07:38:08;5.80;99.90
33994;DHT22;20673;48.980;8.138;2023-04-03T07:40:34;5.80;99.90
33994;DHT22;20673;48.980;8.138;2023-04-03T07:43:00;5.80;99.90
33994;DHT22;20673;48.980;8.138;2023-04-03T07:45:26;5.90;99.90
33994;DHT22;20673;48.980;8.138;2023-04-03T07:47:52;6.00;99.90
33994;DHT22;20673;48.980;8.138;2023-04-03T07:50:18;6.00;99.90
33994;DHT22;20673;48.980;8.138;2023-04-03T07:52:44;6.10;99.90
33994;DHT22;20673;48.980;8.138;2023-04-03T07:55:11;6.10;99.90
33994;DHT22;20673;48.980;8.138;2023-04-03T07:57:37;6.20;99.90
33994;DHT22;20673;48.980;8.138;2023-04-03T08:00:03;6.40;99.90
33994;DHT22;20673;48.980;8.138;2023-04-03T08:02:29;6.50;99.90
33994;DHT22;20673;48.980;8.138;2023-04-03T08:04:54;6.50;99.90
33994;DHT22;20673;48.980;8.138;2023-04-03T08:07:20;6.80;99.90
33994;DHT22;20673;48.980;8.138;2023-04-03T08:09:46;6.80;99.90
33994;DHT22;20673;48.980;8.138;2023-04-03T08:12:11;7.00;99.90
33994;DHT22;20673;48.980;8.138;2023-04-03T08:14:37;7.10;99.90
33994;DHT22;20673;48.980;8.138;2023-04-03T08:17:03;7.30;99.90
33994;DHT22;20673;48.980;8.138;2023-04-03T08:19:30;7.30;99.90
33994;DHT22;20673;48.980;8.138;2023-04-03T08:21:56;7.40;99.90
33994;DHT22;20673;48.980;8.138;2023-04-03T08:24:24;7.80;99.90
33994;DHT22;20673;48.980;8.138;2023-04-03T08:26:50;8.00;99.90
33994;DHT22;20673;48.980;8.138;2023-04-03T08:29:15;8.10;99.90
33994;DHT22;20673;48.980;8.138;2023-04-03T08:31:41;8.30;99.90
33994;DHT22;20673;48.980;8.138;2023-04-03T08:34:07;8.40;99.90
33994;DHT22;20673;48.980;8.138;2023-04-03T08:36:33;8.60;99.90
33994;DHT22;20673;48.980;8.138;2023-04-03T08:38:59;8.80;99.90
33994;DHT22;20673;48.980;8.138;2023-04-03T08:41:29;9.00;99.90
33994;DHT22;20673;48.980;8.138;2023-04-03T08:46:26;8.70;99.90
33994;DHT22;20673;48.980;8.138;2023-04-03T08:48:51;8.60;99.90
33994;DHT22;20673;48.980;8.138;2023-04-03T08:51:19;8.60;99.90
33994;DHT22;20673;48.980;8.138;2023-04-03T08:53:54;8.70;99.90
33994;DHT22;20673;48.980;8.138;2023-04-03T08:56:16;9.00;99.90
33994;DHT22;20673;48.980;8.138;2023-04-03T09:03:46;9.10;99.90
33994;DHT22;20673;48.980;8.138;2023-04-03T09:06:21;8.90;99.90
33994;DHT22;20673;48.980;8.138;2023-04-03T09:16:52;8.70;99.90
33994;DHT22;20673;48.980;8.138;2023-04-03T09:20:06;8.50;99.90
33994;DHT22;20673;48.980;8.138;2023-04-03T09:21:45;8.40;99.90
33994;DHT22;20673;48.980;8.138;2023-04-03T09:24:12;8.10;99.90
33994;DHT22;20673;48.980;8.138;2023-04-03T09:26:41;7.90;99.90
33994;DHT22;20673;48.980;8.138;2023-04-03T09:29:06;7.80;99.90
33994;DHT22;20673;48.980;8.138;2023-04-03T09:31:42;7.80;99.90
33994;DHT22;20673;48.980;8.138;2023-04-03T09:34:10;7.70;99.90
33994;DHT22;20673;48.980;8.138;2023-04-03T09:36:45;7.80;99.90
33994;DHT22;20673;48.980;8.138;2023-04-03T09:39:16;7.80;99.90
33994;DHT22;20673;48.980;8.138;2023-04-03T09:41:38;7.70;99.90
33994;DHT22;20673;48.980;8.138;2023-04-03T09:44:17;7.70;99.90
33994;DHT22;20673;48.980;8.138;2023-04-03T09:46:33;7.70;99.90
33994;DHT22;20673;48.980;8.138;2023-04-03T09:49:00;7.80;99.90
33994;DHT22;20673;48.980;8.138;2023-04-03T09:51:27;7.80;99.90
33994;DHT22;20673;48.980;8.138;2023-04-03T09:53:53;7.80;99.90
33994;DHT22;20673;48.980;8.138;2023-04-03T09:56:21;7.90;99.90
33994;DHT22;20673;48.980;8.138;2023-04-03T10:06:39;7.80;99.90
33994;DHT22;20673;48.980;8.138;2023-04-03T10:09:15;8.00;99.90
33994;DHT22;20673;48.980;8.138;2023-04-03T10:11:33;8.00;99.90
33994;DHT22;20673;48.980;8.138;2023-04-03T10:14:00;7.90;99.90
33994;DHT22;20673;48.980;8.138;2023-04-03T10:18:57;7.90;99.90
33994;DHT22;20673;48.980;8.138;2023-04-03T10:21:29;8.00;99.90
33994;DHT22;20673;48.980;8.138;2023-04-03T10:26:29;8.10;99.90
33994;DHT22;20673;48.980;8.138;2023-04-03T10:31:34;8.10;99.90
33994;DHT22;20673;48.980;8.138;2023-04-03T10:41:51;8.50;99.90
33994;DHT22;20673;48.980;8.138;2023-04-03T10:47:02;8.90;99.90
33994;DHT22;20673;48.980;8.138;2023-04-03T10:49:34;8.90;99.90
33994;DHT22;20673;48.980;8.138;2023-04-03T10:54:45;9.00;99.90
33994;DHT22;20673;48.980;8.138;2023-04-03T10:57:10;8.90;99.90
33994;DHT22;20673;48.980;8.138;2023-04-03T10:59:43;8.90;99.90
33994;DHT22;20673;48.980;8.138;2023-04-03T11:04:37;9.00;99.90
33994;DHT22;20673;48.980;8.138;2023-04-03T11:07:23;9.00;99.90
33994;DHT22;20673;48.980;8.138;2023-04-03T11:09:52;9.10;99.90
33994;DHT22;20673;48.980;8.138;2023-04-03T11:14:46;9.50;99.90
33994;DHT22;20673;48.980;8.138;2023-04-03T11:22:36;9.70;99.90
33994;DHT22;20673;48.980;8.138;2023-04-03T11:25:43;9.60;99.90
33994;DHT22;20673;48.980;8.138;2023-04-03T11:27:26;9.80;99.90
33994;DHT22;20673;48.980;8.138;2023-04-03T11:29:52;9.60;99.90
33994;DHT22;20673;48.980;8.138;2023-04-03T11:32:38;9.50;99.90
33994;DHT22;20673;48.980;8.138;2023-04-03T11:35:02;9.50;99.90
33994;DHT22;20673;48.980;8.138;2023-04-03T11:37:43;9.40;99.90
33994;DHT22;20673;48.980;8.138;2023-04-03T11:40:28;9.50;99.90
33994;DHT22;20673;48.980;8.138;2023-04-03T11:42:41;9.70;99.90
33994;DHT22;20673;48.980;8.138;2023-04-03T11:52:59;10.00;99.90
33994;DHT22;20673;48.980;8.138;2023-04-03T11:55:41;9.80;99.90
33994;DHT22;20673;48.980;8.138;2023-04-03T12:16:25;10.10;99.90
33994;DHT22;20673;48.980;8.138;2023-04-03T12:22:04;10.00;99.90
33994;DHT22;20673;48.980;8.138;2023-04-03T12:24:02;10.00;99.90
33994;DHT22;20673;48.980;8.138;2023-04-03T12:26:36;9.80;99.90
33994;DHT22;20673;48.980;8.138;2023-04-03T12:29:02;9.90;99.90
33994;DHT22;20673;48.980;8.138;2023-04-03T12:31:33;9.70;99.90
33994;DHT22;20673;48.980;8.138;2023-04-03T12:34:15;9.40;99.90
33994;DHT22;20673;48.980;8.138;2023-04-03T12:39:33;9.30;99.90
33994;DHT22;20673;48.980;8.138;2023-04-03T12:41:56;9.40;99.90
33994;DHT22;20673;48.980;8.138;2023-04-03T12:46:49;9.40;99.90
33994;DHT22;20673;48.980;8.138;2023-04-03T12:52:00;9.50;99.90
33994;DHT22;20673;48.980;8.138;2023-04-03T12:54:37;9.50;99.90
33994;DHT22;20673;48.980;8.138;2023-04-03T12:57:15;9.70;99.90
33994;DHT22;20673;48.980;8.138;2023-04-03T12:59:36;9.50;99.90
33994;DHT22;20673;48.980;8.138;2023-04-03T13:02:07;9.40;99.90
33994;DHT22;20673;48.980;8.138;2023-04-03T13:04:31;9.20;99.90
33994;DHT22;20673;48.980;8.138;2023-04-03T13:06:57;9.20;99.90
33994;DHT22;20673;48.980;8.138;2023-04-03T13:09:24;9.20;99.90
33994;DHT22;20673;48.980;8.138;2023-04-03T13:11:53;9.20;99.90
33994;DHT22;20673;48.980;8.138;2023-04-03T13:14:23;9.30;99.90
33994;DHT22;20673;48.980;8.138;2023-04-03T13:16:58;9.60;99.90
33994;DHT22;20673;48.980;8.138;2023-04-03T13:19:17;9.90;99.90
33994;DHT22;20673;48.980;8.138;2023-04-03T13:21:42;9.90;99.90
33994;DHT22;20673;48.980;8.138;2023-04-03T13:24:10;9.60;99.90
33994;DHT22;20673;48.980;8.138;2023-04-03T13:26:36;9.50;99.90
33994;DHT22;20673;48.980;8.138;2023-04-03T13:29:07;9.40;99.90
33994;DHT22;20673;48.980;8.138;2023-04-03T13:31:30;9.30;99.90
33994;DHT22;20673;48.980;8.138;2023-04-03T13:36:35;9.20;99.90
33994;DHT22;20673;48.980;8.138;2023-04-03T13:41:36;9.30;99.90
33994;DHT22;20673;48.980;8.138;2023-04-03T13:46:46;9.20;99.90
33994;DHT22;20673;48.980;8.138;2023-04-03T13:49:21;9.20;99.90
33994;DHT22;20673;48.980;8.138;2023-04-03T13:51:48;8.90;99.90
33994;DHT22;20673;48.980;8.138;2023-04-03T13:54:21;8.80;99.90
33994;DHT22;20673;48.980;8.138;2023-04-03T13:56:52;8.80;99.90
33994;DHT22;20673;48.980;8.138;2023-04-03T14:04:12;8.80;99.90
33994;DHT22;20673;48.980;8.138;2023-04-03T14:06:38;9.00;99.90
33994;DHT22;20673;48.980;8.138;2023-04-03T14:09:04;9.10;99.90
33994;DHT22;20673;48.980;8.138;2023-04-03T14:11:30;9.00;99.90
33994;DHT22;20673;48.980;8.138;2023-04-03T14:14:00;9.00;99.90
33994;DHT22;20673;48.980;8.138;2023-04-03T14:16:27;9.00;99.90
33994;DHT22;20673;48.980;8.138;2023-04-03T14:18:54;9.00;99.90
33994;DHT22;20673;48.980;8.138;2023-04-03T14:21:20;9.10;99.90
33994;DHT22;20673;48.980;8.138;2023-04-03T14:23:46;9.10;99.90
33994;DHT22;20673;48.980;8.138;2023-04-03T14:26:13;8.90;99.90
33994;DHT22;20673;48.980;8.138;2023-04-03T14:28:41;8.90;99.90
33994;DHT22;20673;48.980;8.138;2023-04-03T14:31:08;8.90;99.90
33994;DHT22;20673;48.980;8.138;2023-04-03T14:33:35;8.90;99.90
33994;DHT22;20673;48.980;8.138;2023-04-03T14:36:05;9.00;99.90
33994;DHT22;20673;48.980;8.138;2023-04-03T14:38:30;9.10;99.90
33994;DHT22;20673;48.980;8.138;2023-04-03T14:40:57;9.00;99.90
33994;DHT22;20673;48.980;8.138;2023-04-03T14:43:22;9.00;99.90
33994;DHT22;20673;48.980;8.138;2023-04-03T14:45:49;9.00;99.90
33994;DHT22;20673;48.980;8.138;2023-04-03T14:48:16;8.90;99.90
33994;DHT22;20673;48.980;8.138;2023-04-03T14:50:42;8.90;99.90
33994;DHT22;20673;48.980;8.138;2023-04-03T14:53:09;8.80;99.90
33994;DHT22;20673;48.980;8.138;2023-04-03T14:55:35;8.80;99.90
33994;DHT22;20673;48.980;8.138;2023-04-03T14:58:01;8.70;99.90
33994;DHT22;20673;48.980;8.138;2023-04-03T15:00:27;8.70;99.90
33994;DHT22;20673;48.980;8.138;2023-04-03T15:02:53;9.00;99.90
33994;DHT22;20673;48.980;8.138;2023-04-03T15:05:18;9.60;99.90
33994;DHT22;20673;48.980;8.138;2023-04-03T15:07:49;9.70;99.90
33994;DHT22;20673;48.980;8.138;2023-04-03T15:10:20;9.50;99.90
33994;DHT22;20673;48.980;8.138;2023-04-03T15:12:46;9.30;99.90
33994;DHT22;20673;48.980;8.138;2023-04-03T15:15:12;9.10;99.90
33994;DHT22;20673;48.980;8.138;2023-04-03T15:17:38;9.00;99.90
33994;DHT22;20673;48.980;8.138;2023-04-03T15:20:10;8.90;99.90
33994;DHT22;20673;48.980;8.138;2023-04-03T15:22:31;8.80;99.90
33994;DHT22;20673;48.980;8.138;2023-04-03T15:24:57;8.90;99.90
33994;DHT22;20673;48.980;8.138;2023-04-03T15:27:22;8.90;99.90
33994;DHT22;20673;48.980;8.138;2023-04-03T15:29:48;8.80;99.90
33994;DHT22;20673;48.980;8.138;2023-04-03T15:32:14;8.80;99.90
33994;DHT22;20673;48.980;8.138;2023-04-03T15:34:40;9.40;99.90
33994;DHT22;20673;48.980;8.138;2023-04-03T15:37:06;10.20;99.90
33994;DHT22;20673;48.980;8.138;2023-04-03T15:39:31;10.90;99.90
33994;DHT22;20673;48.980;8.138;2023-04-03T15:41:57;11.30;99.90
33994;DHT22;20673;48.980;8.138;2023-04-03T15:44:25;11.30;99.90
33994;DHT22;20673;48.980;8.138;2023-04-03T15:46:51;10.90;99.90
33994;DHT22;20673;48.980;8.138;2023-04-03T15:49:17;10.40;99.90
33994;DHT22;20673;48.980;8.138;2023-04-03T15:51:43;10.20;99.90
33994;DHT22;20673;48.980;8.138;2023-04-03T15:54:09;10.40;99.90
33994;DHT22;20673;48.980;8.138;2023-04-03T15:56:34;10.60;99.90
33994;DHT22;20673;48.980;8.138;2023-04-03T15:59:00;10.80;99.90
33994;DHT22;20673;48.980;8.138;2023-04-03T16:01:26;11.30;99.90
33994;DHT22;20673;48.980;8.138;2023-04-03T16:03:51;11.40;99.90
33994;DHT22;20673;48.980;8.138;2023-04-03T16:06:17;11.80;99.90
33994;DHT22;20673;48.980;8.138;2023-04-03T16:08:44;12.30;99.90
33994;DHT22;20673;48.980;8.138;2023-04-03T16:11:11;12.20;99.90
33994;DHT22;20673;48.980;8.138;2023-04-03T16:13:37;11.80;99.90
33994;DHT22;20673;48.980;8.138;2023-04-03T16:16:03;11.00;99.90
33994;DHT22;20673;48.980;8.138;2023-04-03T16:18:29;10.50;99.90
33994;DHT22;20673;48.980;8.138;2023-04-03T16:20:55;10.00;99.90
33994;DHT22;20673;48.980;8.138;2023-04-03T16:23:21;9.80;99.90
33994;DHT22;20673;48.980;8.138;2023-04-03T16:25:47;9.50;99.90
33994;DHT22;20673;48.980;8.138;2023-04-03T16:28:15;10.00;99.90
33994;DHT22;20673;48.980;8.138;2023-04-03T16:30:42;10.30;99.90
33994;DHT22;20673;48.980;8.138;2023-04-03T16:33:09;10.50;99.90
33994;DHT22;20673;48.980;8.138;2023-04-03T16:35:35;10.60;99.90
33994;DHT22;20673;48.980;8.138;2023-04-03T16:38:01;10.80;99.90
33994;DHT22;20673;48.980;8.138;2023-04-03T16:40:27;11.00;99.90
33994;DHT22;20673;48.980;8.138;2023-04-03T16:42:53;10.90;99.90
33994;DHT22;20673;48.980;8.138;2023-04-03T16:45:18;10.80;99.90
33994;DHT22;20673;48.980;8.138;2023-04-03T16:47:44;11.00;99.90
33994;DHT22;20673;48.980;8.138;2023-04-03T16:50:10;10.80;99.90
33994;DHT22;20673;48.980;8.138;2023-04-03T16:52:36;10.30;99.90
33994;DHT22;20673;48.980;8.138;2023-04-03T16:55:01;9.70;99.90
33994;DHT22;20673;48.980;8.138;2023-04-03T16:57:27;9.40;99.90
33994;DHT22;20673;48.980;8.138;2023-04-03T16:59:53;9.00;99.90
33994;DHT22;20673;48.980;8.138;2023-04-03T17:02:22;8.90;99.90
33994;DHT22;20673;48.980;8.138;2023-04-03T17:04:50;8.60;99.90
33994;DHT22;20673;48.980;8.138;2023-04-03T17:07:17;8.50;99.90
33994;DHT22;20673;48.980;8.138;2023-04-03T17:09:43;8.20;99.90
33994;DHT22;20673;48.980;8.138;2023-04-03T17:12:08;8.10;99.90
33994;DHT22;20673;48.980;8.138;2023-04-03T17:14:34;8.00;99.90
33994;DHT22;20673;48.980;8.138;2023-04-03T17:16:59;7.80;99.90
33994;DHT22;20673;48.980;8.138;2023-04-03T17:19:25;7.80;99.90
33994;DHT22;20673;48.980;8.138;2023-04-03T17:21:52;7.70;99.90
33994;DHT22;20673;48.980;8.138;2023-04-03T17:24:17;7.60;99.90
33994;DHT22;20673;48.980;8.138;2023-04-03T17:26:43;7.50;99.90
33994;DHT22;20673;48.980;8.138;2023-04-03T17:29:09;7.40;99.90